Time;durP1;ratioP1;P1;durP2;ratioP2;P2;SDS_P1;SDS_P2;PMS_P1;PMS_P2;Temp;Humidity;BMP_temperature;BMP_pressure;BME280_temperature;BME280_humidity;BME280_pressure;Samples;Min_cycle;Max_cycle;Signal;HPM_P1;HPM_P2
2022/03/12 00:01:30;;;;;;;;;;;;;;;-7.87;81.73;100772.80;1754250;80;20121;-67
2022/03/12 00:04:00;;;;;;;;;;;;;;;-7.70;82.05;100778.46;1753552;81;20127;-68
2022/03/12 00:06:28;;;;;;;;;;;;;;;-7.54;82.70;100767.45;1745886;81;21298;-67
2022/03/12 00:08:55;;;;;;;;;;;;;;;-7.48;82.91;100774.75;1743382;81;20448;-67
2022/03/12 00:11:26;;;;;;;;;;;;;;;-7.47;82.72;100766.58;1734044;81;20176;-67
2022/03/12 00:13:54;;;;;;;;;;;;;;;-7.42;82.45;100761.56;1756887;80;20093;-67
2022/03/12 00:16:24;;;;;;;;;;;;;;;-7.36;82.18;100762.72;1756606;81;20164;-67
2022/03/12 00:18:55;;;;;;;;;;;;;;;-7.32;82.12;100755.55;1756784;81;21908;-66
2022/03/12 00:21:34;;;;;;;;;;;;;;;-7.28;81.83;100752.03;1755712;81;20433;-67
2022/03/12 00:24:01;;;;;;;;;;;;;;;-7.29;81.42;100754.88;1755060;82;20421;-67
2022/03/12 00:26:28;;;;;;;;;;;;;;;-7.37;80.86;100754.39;1754848;82;20095;-67
2022/03/12 00:28:58;;;;;;;;;;;;;;;-7.49;80.40;100753.08;1754755;82;20090;-67
2022/03/12 00:31:26;;;;;;;;;;;;;;;-7.62;80.32;100752.80;1754865;82;21247;-67
2022/03/12 00:33:53;;;;;;;;;;;;;;;-7.71;80.43;100751.47;1754688;82;20094;-67
2022/03/12 00:36:21;;;;;;;;;;;;;;;-7.77;80.59;100744.14;1754879;82;20408;-67
2022/03/12 00:38:48;;;;;;;;;;;;;;;-7.81;80.69;100745.47;1754958;81;20143;-67
2022/03/12 00:41:17;;;;;;;;;;;;;;;-7.85;80.88;100742.80;1757223;81;20140;-67
2022/03/12 00:43:44;;;;;;;;;;;;;;;-7.87;81.12;100741.31;1770897;80;21147;-66
2022/03/12 00:46:11;;;;;;;;;;;;;;;-7.90;81.24;100742.98;1725247;83;20171;-67
2022/03/12 00:48:39;;;;;;;;;;;;;;;-7.94;81.21;100734.98;1741210;82;20123;-66
2022/03/12 00:51:07;;;;;;;;;;;;;;;-8.01;81.09;100739.64;1756906;80;20112;-67
2022/03/12 00:53:34;;;;;;;;;;;;;;;-8.06;81.07;100738.47;1770896;81;20108;-67
2022/03/12 00:56:01;;;;;;;;;;;;;;;-8.10;81.16;100735.84;1725234;83;21091;-67
2022/03/12 00:58:28;;;;;;;;;;;;;;;-8.15;81.30;100728.34;1741094;82;20143;-67
2022/03/12 01:00:56;;;;;;;;;;;;;;;-8.19;81.63;100727.01;1757203;81;20490;-66
2022/03/12 01:03:22;;;;;;;;;;;;;;;-8.20;81.70;100724.51;1771091;81;20423;-66
2022/03/12 01:05:57;;;;;;;;;;;;;;;-8.22;81.93;100734.50;1727804;82;20119;-68
2022/03/12 01:08:24;;;;;;;;;;;;;;;-8.25;81.92;100725.50;1740074;82;21231;-68
2022/03/12 01:10:53;;;;;;;;;;;;;;;-8.25;82.14;100729.00;1750941;82;20433;-68
2022/03/12 01:13:25;;;;;;;;;;;;;;;-8.25;82.46;100722.84;1750838;82;20118;-68
2022/03/12 01:15:49;;;;;;;;;;;;;;;-8.23;82.57;100725.67;1750183;80;20645;-68
2022/03/12 01:18:19;;;;;;;;;;;;;;;-8.22;82.55;100725.17;1751110;82;20159;-68
2022/03/12 01:20:47;;;;;;;;;;;;;;;-8.23;82.44;100721.67;1751023;82;21101;-67
2022/03/12 01:23:16;;;;;;;;;;;;;;;-8.24;82.49;100717.84;1750910;82;20154;-68
2022/03/12 01:25:44;;;;;;;;;;;;;;;-8.25;82.44;100717.02;1750994;82;20098;-68
2022/03/12 01:28:12;;;;;;;;;;;;;;;-8.24;82.33;100716.02;1751112;82;20638;-68
2022/03/12 01:30:41;;;;;;;;;;;;;;;-8.23;82.19;100711.02;1751056;82;20095;-68
2022/03/12 01:33:09;;;;;;;;;;;;;;;-8.25;82.12;100711.69;1751010;82;21253;-68
2022/03/12 01:35:36;;;;;;;;;;;;;;;-8.25;82.15;100708.19;1750980;82;20087;-67
2022/03/12 01:38:04;;;;;;;;;;;;;;;-8.24;82.16;100708.02;1750976;82;20082;-68
2022/03/12 01:40:32;;;;;;;;;;;;;;;-8.23;82.24;100704.36;1726371;82;20108;-67
2022/03/12 01:42:59;;;;;;;;;;;;;;;-8.20;82.33;100704.03;1721159;83;20161;-68
2022/03/12 01:45:27;;;;;;;;;;;;;;;-8.18;81.98;100707.86;1721295;83;21141;-68
2022/03/12 01:47:58;;;;;;;;;;;;;;;-8.23;81.58;100700.86;1721220;83;20101;-67
2022/03/12 01:50:27;;;;;;;;;;;;;;;-8.32;81.43;100707.52;1721315;83;20165;-67
2022/03/12 01:52:58;;;;;;;;;;;;;;;-8.39;82.53;100701.72;1732100;81;20694;-68
2022/03/12 01:55:30;;;;;;;;;;;;;;;-8.39;82.97;100703.88;1752932;82;20082;-68
2022/03/12 01:57:57;;;;;;;;;;;;;;;-8.36;83.08;100714.20;1752460;82;21146;-67
2022/03/12 02:00:25;;;;;;;;;;;;;;;-8.26;83.79;100715.34;1752847;82;20462;-68
2022/03/12 02:03:01;;;;;;;;;;;;;;;-8.07;85.00;100716.33;1752502;82;20122;-68
2022/03/12 02:05:25;;;;;;;;;;;;;;;-7.89;84.45;100718.82;1749532;81;20142;-68
2022/03/12 02:07:51;;;;;;;;;;;;;;;-7.78;83.80;100716.31;1743036;82;20122;-66
2022/03/12 02:10:23;;;;;;;;;;;;;;;-7.74;83.04;100722.97;1722487;83;20116;-66
2022/03/12 02:12:50;;;;;;;;;;;;;;;-7.77;82.51;100725.48;1722300;83;20535;-66
2022/03/12 02:15:20;;;;;;;;;;;;;;;-7.78;82.48;100722.48;1722410;83;20141;-66
2022/03/12 02:17:47;;;;;;;;;;;;;;;-7.74;82.26;100717.64;1722458;83;20153;-66
2022/03/12 02:20:16;;;;;;;;;;;;;;;-7.71;82.80;100718.14;1722714;83;20148;-66
2022/03/12 02:22:45;;;;;;;;;;;;;;;-7.71;82.63;100720.80;1722440;83;21158;-66
2022/03/12 02:25:14;;;;;;;;;;;;;;;-7.74;82.03;100719.81;1722241;83;20161;-66
2022/03/12 02:27:40;;;;;;;;;;;;;;;-7.79;81.62;100711.98;1722203;83;20448;-66
2022/03/12 02:30:10;;;;;;;;;;;;;;;-7.83;81.42;100715.48;1722357;83;20170;-66
2022/03/12 02:32:38;;;;;;;;;;;;;;;-7.87;81.37;100712.82;1734557;82;20091;-66
2022/03/12 02:35:08;;;;;;;;;;;;;;;-7.88;81.50;100710.32;1752453;82;21228;-67
2022/03/12 02:37:35;;;;;;;;;;;;;;;-7.89;81.65;100709.48;1752657;82;20070;-66
2022/03/12 02:40:06;;;;;;;;;;;;;;;-7.88;81.82;100714.32;1732729;82;20109;-67
2022/03/12 02:42:34;;;;;;;;;;;;;;;-7.86;82.00;100712.32;1721488;83;20117;-67
2022/03/12 02:45:04;;;;;;;;;;;;;;;-7.85;81.91;100714.81;1721005;83;20168;-67
2022/03/12 02:47:32;;;;;;;;;;;;;;;-7.83;81.87;100706.66;1721487;83;21785;-66
2022/03/12 02:50:03;;;;;;;;;;;;;;;-7.83;81.94;100707.98;1721028;83;20090;-67
2022/03/12 02:52:31;;;;;;;;;;;;;;;-7.86;81.77;100702.49;1720948;83;20121;-66
2022/03/12 02:54:59;;;;;;;;;;;;;;;-7.87;81.64;100698.66;1721259;83;20135;-68
2022/03/12 02:57:28;;;;;;;;;;;;;;;-7.86;81.70;100694.99;1721220;83;20113;-68
2022/03/12 03:00:04;;;;;;;;;;;;;;;-7.89;81.54;100691.33;1726570;83;22160;-68
2022/03/12 03:02:31;;;;;;;;;;;;;;;-7.93;81.40;100694.83;1720609;83;20101;-68
2022/03/12 03:04:55;;;;;;;;;;;;;;;-7.99;81.38;100692.34;1721123;83;20096;-68
2022/03/12 03:07:24;;;;;;;;;;;;;;;-8.03;81.40;100685.67;1721069;83;20105;-68
2022/03/12 03:09:51;;;;;;;;;;;;;;;-8.03;81.32;100682.18;1721177;83;20089;-68
2022/03/12 03:12:22;;;;;;;;;;;;;;;-8.04;81.36;100679.18;1721136;83;21156;-68
2022/03/12 03:14:49;;;;;;;;;;;;;;;-8.03;81.33;100672.85;1741452;81;20142;-68
2022/03/12 03:17:16;;;;;;;;;;;;;;;-8.01;81.48;100678.84;1734073;83;20112;-68
2022/03/12 03:19:45;;;;;;;;;;;;;;;-8.00;81.64;100677.84;1760517;81;20665;-68
2022/03/12 03:22:12;;;;;;;;;;;;;;;-8.02;81.82;100675.85;1760543;81;20164;-68
2022/03/12 03:24:39;;;;;;;;;;;;;;;-8.01;81.87;100681.02;1760535;81;21080;-68
2022/03/12 03:27:08;;;;;;;;;;;;;;;-8.00;81.73;100669.35;1760362;81;20117;-68
2022/03/12 03:29:35;;;;;;;;;;;;;;;-7.97;81.64;100670.02;1759702;81;20125;-68
2022/03/12 03:32:02;;;;;;;;;;;;;;;-7.97;81.77;100671.34;1728847;81;20181;-68
2022/03/12 03:34:30;;;;;;;;;;;;;;;-7.99;81.88;100670.19;1738165;81;20118;-68
2022/03/12 03:36:57;;;;;;;;;;;;;;;-8.02;81.93;100666.52;1759173;81;21113;-69
2022/03/12 03:39:27;;;;;;;;;;;;;;;-8.03;82.04;100664.36;1759539;80;20126;-68
2022/03/12 03:41:55;;;;;;;;;;;;;;;-8.07;82.01;100664.36;1760543;81;20138;-68
2022/03/12 03:44:25;;;;;;;;;;;;;;;-8.10;82.09;100660.73;1755792;81;20515;-68
2022/03/12 03:46:52;;;;;;;;;;;;;;;-8.11;82.10;100664.90;1754981;81;20487;-69
2022/03/12 03:49:19;;;;;;;;;;;;;;;-8.14;81.95;100663.40;1752372;81;21123;-68
2022/03/12 03:51:47;;;;;;;;;;;;;;;-8.12;81.86;100662.73;1754284;81;20180;-67
2022/03/12 03:54:15;;;;;;;;;;;;;;;-8.13;81.57;100660.23;1749733;81;20098;-67
2022/03/12 03:56:42;;;;;;;;;;;;;;;-8.12;81.58;100662.73;1755080;81;20129;-67
2022/03/12 03:59:09;;;;;;;;;;;;;;;-8.11;81.37;100657.73;1755345;81;20082;-67
2022/03/12 04:01:41;;;;;;;;;;;;;;;-8.10;81.27;100655.91;1750198;81;22121;-68
2022/03/12 04:04:12;;;;;;;;;;;;;;;-8.12;81.22;100654.73;1749135;80;20097;-66
2022/03/12 04:06:39;;;;;;;;;;;;;;;-8.13;81.35;100654.41;1755422;81;20083;-66
2022/03/12 04:09:06;;;;;;;;;;;;;;;-8.16;81.37;100657.91;1755951;80;20094;-66
2022/03/12 04:11:38;;;;;;;;;;;;;;;-8.18;81.32;100656.73;1756655;81;20173;-66
2022/03/12 04:14:05;;;;;;;;;;;;;;;-8.19;81.56;100659.07;1744223;81;21152;-67
2022/03/12 04:16:34;;;;;;;;;;;;;;;-8.18;81.73;100655.91;1734565;82;20117;-66
2022/03/12 04:19:05;;;;;;;;;;;;;;;-8.18;81.57;100653.24;1732661;82;20180;-66
2022/03/12 04:21:30;;;;;;;;;;;;;;;-8.17;81.63;100653.58;1733209;82;20206;-66
2022/03/12 04:23:59;;;;;;;;;;;;;;;-8.15;81.58;100645.75;1736610;82;20085;-66
2022/03/12 04:26:28;;;;;;;;;;;;;;;-8.15;81.66;100651.08;1734133;82;21128;-66
2022/03/12 04:28:58;;;;;;;;;;;;;;;-8.13;81.44;100649.58;1730766;82;20211;-66
2022/03/12 04:31:26;;;;;;;;;;;;;;;-8.13;81.27;100649.58;1733986;82;20073;-66
2022/03/12 04:33:55;;;;;;;;;;;;;;;-8.15;81.13;100644.41;1733404;82;20105;-66
2022/03/12 04:36:21;;;;;;;;;;;;;;;-8.18;81.12;100640.75;1732266;82;20137;-67
2022/03/12 04:38:49;;;;;;;;;;;;;;;-8.19;81.04;100651.08;1737493;82;21127;-66
2022/03/12 04:41:17;;;;;;;;;;;;;;;-8.15;81.04;100644.41;1737394;82;20121;-66
2022/03/12 04:43:45;;;;;;;;;;;;;;;-8.11;80.86;100642.25;1730223;82;20203;-67
2022/03/12 04:46:12;;;;;;;;;;;;;;;-8.06;80.88;100640.71;1735985;82;20128;-67
2022/03/12 04:48:39;;;;;;;;;;;;;;;-8.01;80.71;100639.70;1745128;82;20205;-67
2022/03/12 04:51:06;;;;;;;;;;;;;;;-7.96;80.67;100639.70;1721300;82;21238;-67
2022/03/12 04:53:34;;;;;;;;;;;;;;;-7.89;80.80;100637.52;1736499;82;20093;-67
2022/03/12 04:56:01;;;;;;;;;;;;;;;-7.77;80.97;100635.33;1729364;81;20183;-67
2022/03/12 04:58:30;;;;;;;;;;;;;;;-7.67;80.92;100639.47;1732401;82;20909;-67
2022/03/12 05:00:56;;;;;;;;;;;;;;;-7.54;81.08;100633.60;1730091;82;20197;-68
2022/03/12 05:03:24;;;;;;;;;;;;;;;-7.39;81.40;100638.52;1734375;82;21167;-67
2022/03/12 05:05:52;;;;;;;;;;;;;;;-7.18;81.70;100643.27;1741705;82;20148;-68
2022/03/12 05:08:20;;;;;;;;;;;;;;;-6.94;81.65;100640.14;1743097;82;20168;-67
2022/03/12 05:10:49;;;;;;;;;;;;;;;-6.69;81.82;100645.63;1745787;82;20133;-67
2022/03/12 05:13:22;;;;;;;;;;;;;;;-6.42;81.62;100638.43;1746749;82;20144;-68
2022/03/12 05:15:48;;;;;;;;;;;;;;;-6.16;81.09;100642.53;1758395;80;21135;-68
2022/03/12 05:18:15;;;;;;;;;;;;;;;-5.90;80.31;100634.11;1758727;80;20123;-68
2022/03/12 05:20:44;;;;;;;;;;;;;;;-5.69;79.21;100632.83;1758564;80;20120;-68
2022/03/12 05:23:11;;;;;;;;;;;;;;;-5.51;78.11;100629.78;1758809;81;20164;-68
2022/03/12 05:25:42;;;;;;;;;;;;;;;-5.36;77.53;100626.59;1729683;83;20452;-67
2022/03/12 05:28:10;;;;;;;;;;;;;;;-5.20;74.84;100625.56;1729509;83;21108;-68
2022/03/12 05:30:39;;;;;;;;;;;;;;;-5.05;75.56;100622.33;1752316;81;20133;-67
2022/03/12 05:33:07;;;;;;;;;;;;;;;-4.95;74.25;100629.55;1758318;81;20128;-67
2022/03/12 05:35:35;;;;;;;;;;;;;;;-4.87;73.14;100624.09;1758994;81;20186;-68
2022/03/12 05:38:02;;;;;;;;;;;;;;;-4.77;73.45;100619.77;1758078;81;20247;-68
2022/03/12 05:40:31;;;;;;;;;;;;;;;-4.68;73.11;100617.28;1751729;81;21128;-68
2022/03/12 05:43:00;;;;;;;;;;;;;;;-4.61;71.31;100615.98;1761590;81;20130;-67
2022/03/12 05:45:26;;;;;;;;;;;;;;;-4.61;70.83;100615.47;1754953;81;20122;-66
2022/03/12 05:47:53;;;;;;;;;;;;;;;-4.58;71.02;100616.94;1757611;81;20655;-67
2022/03/12 05:50:27;;;;;;;;;;;;;;;-4.59;70.61;100608.07;1746596;81;20120;-67
2022/03/12 05:52:54;;;;;;;;;;;;;;;-4.60;70.21;100614.45;1759355;81;21310;-67
2022/03/12 05:55:22;;;;;;;;;;;;;;;-4.64;69.02;100614.55;1759404;81;20168;-67
2022/03/12 05:57:50;;;;;;;;;;;;;;;-4.71;69.46;100609.12;1759762;81;20141;-68
2022/03/12 06:00:18;;;;;;;;;;;;;;;-4.74;69.13;100610.00;1759269;81;20323;-67
2022/03/12 06:02:51;;;;;;;;;;;;;;;-4.79;69.05;100614.59;1759388;81;20176;-68
2022/03/12 06:05:20;;;;;;;;;;;;;;;-4.81;69.08;100610.44;1759375;81;21123;-67
2022/03/12 06:07:49;;;;;;;;;;;;;;;-4.81;68.89;100613.95;1759284;81;20092;-68
2022/03/12 06:10:18;;;;;;;;;;;;;;;-4.75;68.92;100611.86;1758701;81;20116;-68
2022/03/12 06:12:47;;;;;;;;;;;;;;;-4.61;70.02;100609.28;1759009;81;20183;-67
2022/03/12 06:15:16;;;;;;;;;;;;;;;-4.45;68.99;100611.70;1750577;80;20112;-68
2022/03/12 06:17:45;;;;;;;;;;;;;;;-4.30;67.29;100614.31;1746516;82;20116;-67
2022/03/12 06:20:12;;;;;;;;;;;;;;;-4.22;66.48;100604.29;1717521;83;20122;-67
2022/03/12 06:22:40;;;;;;;;;;;;;;;-4.13;65.35;100607.14;1745872;82;20432;-66
2022/03/12 06:25:08;;;;;;;;;;;;;;;-4.03;65.14;100606.78;1746538;82;20095;-68
2022/03/12 06:27:35;;;;;;;;;;;;;;;-3.93;66.79;100602.42;1746695;81;20097;-67
2022/03/12 06:30:04;;;;;;;;;;;;;;;-3.83;64.58;100598.88;1746059;82;22615;-67
2022/03/12 06:32:32;;;;;;;;;;;;;;;-3.78;64.69;100584.36;1740712;82;20156;-70
2022/03/12 06:34:59;;;;;;;;;;;;;;;-3.71;64.93;100592.77;1744519;82;20081;-69
2022/03/12 06:37:26;;;;;;;;;;;;;;;-3.64;64.68;100587.44;1746329;82;20353;-67
2022/03/12 06:39:55;;;;;;;;;;;;;;;-3.57;64.74;100590.16;1739575;82;20181;-67
2022/03/12 06:42:27;;;;;;;;;;;;;;;-3.46;65.25;100592.26;1746682;82;22039;-67
2022/03/12 06:44:57;;;;;;;;;;;;;;;-3.32;65.16;100590.78;1746156;82;20173;-67
2022/03/12 06:47:29;;;;;;;;;;;;;;;-3.14;64.92;100590.23;1746366;82;20097;-67
2022/03/12 06:49:54;;;;;;;;;;;;;;;-2.99;64.08;100587.39;1747167;81;20583;-67
2022/03/12 06:52:20;;;;;;;;;;;;;;;-2.89;63.14;100586.50;1726141;82;20112;-66
2022/03/12 06:54:48;;;;;;;;;;;;;;;-2.78;62.51;100583.19;1746073;82;21215;-66
2022/03/12 06:57:16;;;;;;;;;;;;;;;-2.61;64.59;100585.50;1745960;82;20132;-66
2022/03/12 06:59:44;;;;;;;;;;;;;;;-2.41;61.97;100585.84;1736637;82;20101;-66
2022/03/12 07:02:11;;;;;;;;;;;;;;;-2.34;61.59;100581.29;1746393;82;20430;-66
2022/03/12 07:04:38;;;;;;;;;;;;;;;-2.25;61.30;100577.02;1746111;82;20081;-66
2022/03/12 07:07:06;;;;;;;;;;;;;;;-2.13;61.60;100567.30;1746369;82;21098;-66
2022/03/12 07:09:34;;;;;;;;;;;;;;;-1.98;60.05;100569.77;1745509;82;20081;-66
2022/03/12 07:12:03;;;;;;;;;;;;;;;-1.79;60.15;100568.39;1746877;82;20112;-67
2022/03/12 07:14:32;;;;;;;;;;;;;;;-1.41;59.15;100568.99;1748549;81;20292;-68
2022/03/12 07:17:00;;;;;;;;;;;;;;;-0.83;57.73;100558.13;1755782;80;20427;-66
2022/03/12 07:19:27;;;;;;;;;;;;;;;-0.10;56.10;100559.22;1755867;81;21148;-66
2022/03/12 07:21:54;;;;;;;;;;;;;;;0.51;53.98;100552.16;1755654;80;20483;-66
2022/03/12 07:24:22;;;;;;;;;;;;;;;1.00;52.47;100553.80;1756192;80;20131;-66
2022/03/12 07:26:51;;;;;;;;;;;;;;;1.47;49.72;100558.00;1755373;80;20810;-67
2022/03/12 07:29:19;;;;;;;;;;;;;;;1.79;48.63;100555.28;1756284;81;20117;-66
2022/03/12 07:31:46;;;;;;;;;;;;;;;2.21;46.07;100549.77;1756263;80;21137;-64
2022/03/12 07:34:15;;;;;;;;;;;;;;;2.56;47.24;100543.75;1758319;80;20088;-64
2022/03/12 07:36:43;;;;;;;;;;;;;;;2.94;44.98;100537.73;1755560;81;20143;-64
2022/03/12 07:39:10;;;;;;;;;;;;;;;3.23;43.74;100524.98;1761645;79;20121;-65
2022/03/12 07:41:37;;;;;;;;;;;;;;;3.46;42.19;100528.12;1739567;81;20446;-65
2022/03/12 07:44:05;;;;;;;;;;;;;;;3.41;41.27;100522.59;1724554;81;21852;-65
2022/03/12 07:46:32;;;;;;;;;;;;;;;3.31;40.69;100517.81;1724337;81;20127;-65
2022/03/12 07:49:01;;;;;;;;;;;;;;;3.45;40.87;100516.97;1728286;82;32552;-65
2022/03/12 07:51:28;;;;;;;;;;;;;;;3.52;39.78;100520.31;1752235;81;20148;-65
2022/03/12 07:53:58;;;;;;;;;;;;;;;3.53;40.16;100514.35;1733892;82;20198;-65
2022/03/12 07:56:27;;;;;;;;;;;;;;;3.75;40.67;100512.55;1744438;82;21171;-65
2022/03/12 07:58:55;;;;;;;;;;;;;;;4.05;38.55;100504.56;1752294;82;20091;-65
2022/03/12 08:01:22;;;;;;;;;;;;;;;4.15;38.34;100505.53;1750922;81;20127;-65
2022/03/12 08:03:49;;;;;;;;;;;;;;;4.32;38.64;100498.70;1750757;82;20127;-65
2022/03/12 08:06:19;;;;;;;;;;;;;;;4.48;37.99;100488.84;1750968;82;20786;-65
2022/03/12 08:08:44;;;;;;;;;;;;;;;4.54;36.66;100496.00;1751175;80;21088;-65
2022/03/12 08:11:28;;;;;;;;;;;;;;;4.34;35.72;100489.75;1751046;82;20745;-66
2022/03/12 08:14:02;;;;;;;;;;;;;;;4.26;36.24;100479.31;1750985;82;20213;-66
2022/03/12 08:16:29;;;;;;;;;;;;;;;4.24;36.48;100474.67;1750933;82;20095;-66
2022/03/12 08:18:56;;;;;;;;;;;;;;;4.39;37.99;100472.69;1750874;82;20107;-66
2022/03/12 08:21:25;;;;;;;;;;;;;;;4.75;36.11;100475.28;1751281;82;21895;-66
2022/03/12 08:23:52;;;;;;;;;;;;;;;4.97;36.56;100474.71;1751007;82;20130;-66
2022/03/12 08:26:19;;;;;;;;;;;;;;;5.23;35.02;100474.40;1735103;82;20230;-66
2022/03/12 08:28:48;;;;;;;;;;;;;;;5.33;34.34;100466.87;1740311;80;20110;-66
2022/03/12 08:31:16;;;;;;;;;;;;;;;5.39;33.12;100461.20;1747620;81;20615;-66
2022/03/12 08:33:43;;;;;;;;;;;;;;;5.41;34.03;100471.84;1751804;82;21153;-66
2022/03/12 08:36:10;;;;;;;;;;;;;;;5.53;33.27;100462.96;1752141;82;20405;-66
2022/03/12 08:38:37;;;;;;;;;;;;;;;5.73;31.56;100463.13;1744818;80;20445;-66
2022/03/12 08:41:05;;;;;;;;;;;;;;;5.78;31.21;100453.59;1740720;80;20169;-66
2022/03/12 08:43:35;;;;;;;;;;;;;;;5.66;30.66;100443.45;1735650;82;20233;-66
2022/03/12 08:46:01;;;;;;;;;;;;;;;5.59;30.91;100457.30;1735504;80;21159;-68
2022/03/12 08:48:29;;;;;;;;;;;;;;;5.52;29.73;100462.68;1746755;81;20090;-67
2022/03/12 08:50:56;;;;;;;;;;;;;;;5.37;29.95;100425.79;1746392;82;20125;-66
2022/03/12 08:53:24;;;;;;;;;;;;;;;5.33;30.49;100448.62;1745120;81;20199;-68
2022/03/12 08:55:52;;;;;;;;;;;;;;;5.30;31.01;100454.05;1742329;82;20884;-68
2022/03/12 08:58:20;;;;;;;;;;;;;;;5.40;32.16;100451.96;1737138;81;21157;-68
2022/03/12 09:00:46;;;;;;;;;;;;;;;5.69;32.54;100440.20;1747318;82;20114;-68
2022/03/12 09:03:13;;;;;;;;;;;;;;;5.88;31.44;100435.12;1746290;82;20124;-72
2022/03/12 09:05:41;;;;;;;;;;;;;;;5.82;30.73;100432.91;1743194;82;20095;-72
2022/03/12 09:08:09;;;;;;;;;;;;;;;5.65;31.04;100426.83;1752254;81;20103;-70
2022/03/12 09:10:36;;;;;;;;;;;;;;;5.51;31.55;100429.17;1752421;80;21244;-72
2022/03/12 09:13:02;;;;;;;;;;;;;;;5.50;30.80;100422.63;1752042;82;20102;-72
2022/03/12 09:15:29;;;;;;;;;;;;;;;5.57;31.33;100419.96;1732575;80;20233;-72
2022/03/12 09:17:56;;;;;;;;;;;;;;;5.70;31.99;100410.52;1750273;80;21042;-72
2022/03/12 09:20:24;;;;;;;;;;;;;;;6.05;31.93;100405.83;1752309;82;20422;-69
2022/03/12 09:22:53;;;;;;;;;;;;;;;6.50;30.18;100408.44;1752357;82;21120;-69
2022/03/12 09:25:21;;;;;;;;;;;;;;;6.71;30.32;100404.69;1752033;82;20110;-70
2022/03/12 09:27:53;;;;;;;;;;;;;;;6.87;28.74;100388.63;1752508;82;20973;-69
2022/03/12 09:30:21;;;;;;;;;;;;;;;6.87;27.48;100398.72;1752450;82;20634;-69
2022/03/12 09:32:48;;;;;;;;;;;;;;;6.73;27.51;100391.59;1752362;82;20094;-69
2022/03/12 09:35:15;;;;;;;;;;;;;;;6.84;25.43;100393.80;1752055;82;21159;-69
2022/03/12 09:37:43;;;;;;;;;;;;;;;6.76;25.55;100389.70;1739477;80;20125;-69
2022/03/12 09:40:10;;;;;;;;;;;;;;;6.60;25.52;100392.93;1745144;81;20086;-69
2022/03/12 09:42:38;;;;;;;;;;;;;;;6.58;25.82;100393.73;1725277;81;20894;-69
2022/03/12 09:45:07;;;;;;;;;;;;;;;6.69;25.57;100369.21;1750407;82;20118;-69
2022/03/12 09:47:34;;;;;;;;;;;;;;;6.74;25.46;100388.33;1752602;82;21746;-69
2022/03/12 09:50:02;;;;;;;;;;;;;;;6.59;25.05;100386.37;1741042;82;20113;-68
2022/03/12 09:52:29;;;;;;;;;;;;;;;6.57;28.81;100387.19;1722175;83;20101;-68
2022/03/12 09:54:58;;;;;;;;;;;;;;;6.75;26.84;100388.60;1722044;83;20448;-68
2022/03/12 09:57:25;;;;;;;;;;;;;;;6.82;27.40;100383.16;1722406;83;20217;-69
2022/03/12 09:59:56;;;;;;;;;;;;;;;6.74;27.12;100387.78;1749014;81;21159;-68
2022/03/12 10:02:23;;;;;;;;;;;;;;;6.67;27.41;100389.13;1739252;80;20114;-70
2022/03/12 10:04:51;;;;;;;;;;;;;;;6.53;28.12;100384.17;1747447;82;20172;-68
2022/03/12 10:07:19;;;;;;;;;;;;;;;6.49;28.47;100370.80;1744048;82;20095;-68
2022/03/12 10:09:48;;;;;;;;;;;;;;;6.82;29.72;100372.78;1752409;82;20170;-69
2022/03/12 10:12:19;;;;;;;;;;;;;;;7.27;29.13;100370.06;1739593;82;21268;-68
2022/03/12 10:14:49;;;;;;;;;;;;;;;7.74;27.73;100370.80;1749753;82;20150;-71
2022/03/12 10:17:18;;;;;;;;;;;;;;;7.95;26.84;100362.81;1745883;80;20472;-71
2022/03/12 10:19:46;;;;;;;;;;;;;;;7.89;27.61;100364.74;1742615;82;20513;-63
2022/03/12 10:22:14;;;;;;;;;;;;;;;8.03;27.62;100351.30;1746557;82;20150;-68
2022/03/12 10:24:41;;;;;;;;;;;;;;;8.17;27.57;100346.02;1735477;82;21137;-67
2022/03/12 10:27:10;;;;;;;;;;;;;;;8.17;26.69;100343.28;1751377;82;20461;-69
2022/03/12 10:29:44;;;;;;;;;;;;;;;8.20;28.02;100335.89;1744398;82;20208;-64
2022/03/12 10:32:24;;;;;;;;;;;;;;;8.41;26.98;100327.88;1747074;82;20132;-67
2022/03/12 10:34:59;;;;;;;;;;;;;;;8.48;27.07;100332.49;1752135;82;20126;-69
2022/03/12 10:37:26;;;;;;;;;;;;;;;8.58;26.99;100326.95;1751562;81;21824;-70
2022/03/12 10:40:13;;;;;;;;;;;;;;;8.52;26.69;100321.25;1752102;81;20146;-68
2022/03/12 10:42:48;;;;;;;;;;;;;;;8.54;27.22;100316.86;1752634;82;20162;-67
2022/03/12 10:45:18;;;;;;;;;;;;;;;8.84;27.46;100318.55;1731754;82;20406;-67
2022/03/12 10:47:53;;;;;;;;;;;;;;;9.10;26.44;100309.02;1752531;82;20103;-68
2022/03/12 10:50:23;;;;;;;;;;;;;;;9.24;26.83;100303.11;1759807;79;21289;-70
2022/03/12 10:52:50;;;;;;;;;;;;;;;9.34;25.89;100295.90;1740909;81;20123;-70
2022/03/12 10:55:33;;;;;;;;;;;;;;;9.19;25.08;100274.42;1750484;82;20138;-69
2022/03/12 10:58:09;;;;;;;;;;;;;;;8.95;26.36;100303.67;1775767;80;20430;-73
2022/03/12 11:00:42;;;;;;;;;;;;;;;8.53;25.52;100292.78;1731492;82;20110;-71
2022/03/12 11:03:16;;;;;;;;;;;;;;;8.08;26.96;100286.20;1732083;82;20325;-73
2022/03/12 11:05:49;;;;;;;;;;;;;;;8.01;26.54;100289.78;1750834;82;20473;-68
2022/03/12 11:08:21;;;;;;;;;;;;;;;7.87;27.46;100280.82;1751958;82;20509;-69
2022/03/12 11:10:59;;;;;;;;;;;;;;;7.97;27.09;100282.70;1751536;82;20150;-69
2022/03/12 11:13:46;;;;;;;;;;;;;;;8.10;28.32;100279.32;1751097;82;20205;-72
2022/03/12 11:16:35;;;;;;;;;;;;;;;8.21;28.35;100269.14;1739392;82;21983;-64
2022/03/12 11:19:10;;;;;;;;;;;;;;;8.38;28.84;100272.36;1741611;82;20174;-64
2022/03/12 11:21:43;;;;;;;;;;;;;;;8.55;27.98;100272.79;1722292;83;20121;-64
2022/03/12 11:24:22;;;;;;;;;;;;;;;8.64;28.28;100265.34;1723010;82;20073;-65
2022/03/12 11:26:55;;;;;;;;;;;;;;;8.62;27.67;100268.91;1751946;82;20473;-63
2022/03/12 11:29:27;;;;;;;;;;;;;;;8.70;27.95;100267.73;1751425;82;20942;-64
2022/03/12 11:31:59;;;;;;;;;;;;;;;8.76;27.49;100261.66;1752304;82;20433;-64
2022/03/12 11:34:36;;;;;;;;;;;;;;;8.46;26.84;100256.70;1752637;82;20083;-64
2022/03/12 11:37:28;;;;;;;;;;;;;;;8.42;28.46;100247.98;1752391;82;21102;-64
2022/03/12 11:39:59;;;;;;;;;;;;;;;8.44;28.36;100247.97;1734089;80;20128;-65
2022/03/12 11:42:32;;;;;;;;;;;;;;;8.45;27.61;100242.76;1718863;83;21226;-64
2022/03/12 11:45:02;;;;;;;;;;;;;;;8.44;27.12;100243.86;1720284;83;20101;-64
2022/03/12 11:47:38;;;;;;;;;;;;;;;8.33;28.54;100246.40;1720471;82;20101;-65
2022/03/12 11:50:15;;;;;;;;;;;;;;;8.27;27.33;100232.45;1719684;83;20229;-66
2022/03/12 11:52:45;;;;;;;;;;;;;;;8.13;29.04;100234.19;1720983;83;20401;-65
2022/03/12 11:55:22;;;;;;;;;;;;;;;8.16;29.05;100222.12;1720609;83;20440;-65
2022/03/12 11:57:49;;;;;;;;;;;;;;;8.16;29.30;100230.88;1720850;82;20435;-66
2022/03/12 12:00:24;;;;;;;;;;;;;;;7.98;29.15;100228.83;1720948;83;20117;-65
2022/03/12 12:02:53;;;;;;;;;;;;;;;7.76;29.17;100221.01;1718274;83;20946;-65
2022/03/12 12:05:20;;;;;;;;;;;;;;;7.56;28.50;100219.18;1731584;82;20167;-65
2022/03/12 12:07:48;;;;;;;;;;;;;;;7.26;28.39;100223.67;1729962;82;21139;-65
2022/03/12 12:10:18;;;;;;;;;;;;;;;7.02;29.05;100221.81;1722388;83;20132;-65
2022/03/12 12:12:49;;;;;;;;;;;;;;;6.89;29.26;100212.31;1722744;83;20120;-65
2022/03/12 12:15:23;;;;;;;;;;;;;;;6.84;29.81;100224.05;1722363;82;20181;-66
2022/03/12 12:17:45;;;;;;;;;;;;;;;6.69;29.16;100217.78;1721292;83;20084;-65
2022/03/12 12:20:13;;;;;;;;;;;;;;;6.41;30.26;100215.86;1722593;83;21111;-65
2022/03/12 12:22:40;;;;;;;;;;;;;;;6.18;30.44;100215.86;1724860;82;20120;-66
2022/03/12 12:25:09;;;;;;;;;;;;;;;5.95;30.46;100220.45;1752250;82;20477;-65
2022/03/12 12:27:43;;;;;;;;;;;;;;;5.81;31.27;100214.66;1752683;82;20586;-65
2022/03/12 12:30:15;;;;;;;;;;;;;;;5.76;31.43;100216.03;1732894;82;20429;-66
2022/03/12 12:32:49;;;;;;;;;;;;;;;5.70;31.21;100214.38;1752448;80;21153;-66
2022/03/12 12:35:21;;;;;;;;;;;;;;;5.59;31.02;100214.88;1752182;82;20106;-66
2022/03/12 12:37:50;;;;;;;;;;;;;;;5.49;31.61;100204.48;1752827;82;20135;-65
2022/03/12 12:40:23;;;;;;;;;;;;;;;5.43;32.23;100217.26;1729189;82;20172;-65
2022/03/12 12:42:51;;;;;;;;;;;;;;;5.40;31.82;100212.89;1721188;83;20148;-66
2022/03/12 12:45:22;;;;;;;;;;;;;;;5.39;32.52;100197.09;1721117;83;21135;-66
2022/03/12 12:48:14;;;;;;;;;;;;;;;5.37;31.35;100214.78;1737284;82;20150;-63
2022/03/12 12:50:42;;;;;;;;;;;;;;;5.28;31.70;100217.18;1751725;82;20099;-63